Accueil
METAR-TAF:

METAR-TAF

Aéroports :

Kimmirut, Nunavut, Canada

latitude: 62-51N, longitude: 069-53W, altitude: 53 m

Observation

Le bulletin a été fait il y a 6 heures et 0 minutes, à 20:00 UTC
Vent 16 kt de ouest avec des rafales jusqu'à 22 kt
Température -14°C
Humidité 66%
Pression 1023 hPa
Visibilité: 24.1 km
Quelques nuages à une hauteur de 1700 ft
Nuages épars à une hauteur de 3300 ft
neige faible

METAR: CYLC 232000Z 28016G22KT 15SM -SN FEW017 SCT033 M14/M19 A3021 RMK SC2SC1 0.2/1 TRACE LOOSE LASTSTFD OBS/NXT 241200Z SLP237

Heure: 22:00 (02:00 UTC)


TAF: absent

Observations et prévisions météorologiques de plus de 4000 aéroports (messages METAR et TAF).

Les stations disponibles sont représentées par des disques jaunes et rouges sur la carte.

Passer la souris dessus pour voir le nom de la station.

Cliquer dessus pour voir les observations et prévisions météorologiques.

Pour changer de carte: cliquez sur les boutons verts avec une croix noire pour zoomer, sur le bouton vert avec un tiret pour effectuer un zoom arrière, ou sur les flèches vertes pour les cartes adjacentes.


METAR-TAF: